sensor_id;sensor_type;location;lat;lon;timestamp;P1;durP1;ratioP1;P2;durP2;ratioP2
12163;SDS011;6145;50.192;10.064;2023-07-31T00:01:32;4.47;;;2.07;;
12163;SDS011;6145;50.192;10.064;2023-07-31T00:04:00;4.40;;;2.07;;
12163;SDS011;6145;50.192;10.064;2023-07-31T00:06:27;4.90;;;2.40;;
12163;SDS011;6145;50.192;10.064;2023-07-31T00:08:54;4.67;;;2.33;;
12163;SDS011;6145;50.192;10.064;2023-07-31T00:11:23;5.30;;;2.37;;
12163;SDS011;6145;50.192;10.064;2023-07-31T00:13:50;4.50;;;2.30;;
12163;SDS011;6145;50.192;10.064;2023-07-31T00:16:17;3.60;;;2.00;;
12163;SDS011;6145;50.192;10.064;2023-07-31T00:18:43;4.03;;;2.00;;
12163;SDS011;6145;50.192;10.064;2023-07-31T00:21:10;3.57;;;2.37;;
12163;SDS011;6145;50.192;10.064;2023-07-31T00:23:37;3.80;;;2.20;;
12163;SDS011;6145;50.192;10.064;2023-07-31T00:26:04;3.93;;;2.20;;
12163;SDS011;6145;50.192;10.064;2023-07-31T00:28:32;4.10;;;2.07;;
12163;SDS011;6145;50.192;10.064;2023-07-31T00:30:59;4.37;;;2.13;;
12163;SDS011;6145;50.192;10.064;2023-07-31T00:33:27;3.67;;;1.90;;
12163;SDS011;6145;50.192;10.064;2023-07-31T00:35:55;6.90;;;2.20;;
12163;SDS011;6145;50.192;10.064;2023-07-31T00:38:22;4.67;;;2.07;;
12163;SDS011;6145;50.192;10.064;2023-07-31T00:40:49;4.50;;;2.03;;
12163;SDS011;6145;50.192;10.064;2023-07-31T00:43:19;3.17;;;2.10;;
12163;SDS011;6145;50.192;10.064;2023-07-31T00:45:47;5.63;;;2.13;;
12163;SDS011;6145;50.192;10.064;2023-07-31T00:48:14;5.90;;;2.60;;
12163;SDS011;6145;50.192;10.064;2023-07-31T00:50:41;3.03;;;2.10;;
12163;SDS011;6145;50.192;10.064;2023-07-31T00:53:08;6.03;;;2.40;;
12163;SDS011;6145;50.192;10.064;2023-07-31T00:55:35;4.10;;;2.20;;
12163;SDS011;6145;50.192;10.064;2023-07-31T00:58:02;3.57;;;2.17;;
12163;SDS011;6145;50.192;10.064;2023-07-31T01:00:32;7.13;;;3.50;;
12163;SDS011;6145;50.192;10.064;2023-07-31T01:03:00;2.67;;;1.87;;
12163;SDS011;6145;50.192;10.064;2023-07-31T01:05:29;3.30;;;2.27;;
12163;SDS011;6145;50.192;10.064;2023-07-31T01:08:05;5.57;;;2.33;;
12163;SDS011;6145;50.192;10.064;2023-07-31T01:10:41;4.17;;;2.30;;
12163;SDS011;6145;50.192;10.064;2023-07-31T01:13:14;4.07;;;2.20;;
12163;SDS011;6145;50.192;10.064;2023-07-31T01:15:43;3.87;;;2.50;;
12163;SDS011;6145;50.192;10.064;2023-07-31T01:18:11;3.17;;;2.13;;
12163;SDS011;6145;50.192;10.064;2023-07-31T01:20:42;6.80;;;2.47;;
12163;SDS011;6145;50.192;10.064;2023-07-31T01:23:21;7.83;;;2.40;;
12163;SDS011;6145;50.192;10.064;2023-07-31T01:26:06;3.37;;;2.40;;
12163;SDS011;6145;50.192;10.064;2023-07-31T01:28:40;4.30;;;2.40;;
12163;SDS011;6145;50.192;10.064;2023-07-31T01:31:14;4.77;;;2.40;;
12163;SDS011;6145;50.192;10.064;2023-07-31T01:33:44;3.77;;;2.10;;
12163;SDS011;6145;50.192;10.064;2023-07-31T01:36:15;5.03;;;2.33;;
12163;SDS011;6145;50.192;10.064;2023-07-31T01:38:43;3.47;;;2.40;;
12163;SDS011;6145;50.192;10.064;2023-07-31T01:41:11;3.20;;;2.03;;
12163;SDS011;6145;50.192;10.064;2023-07-31T01:43:38;5.60;;;2.43;;
12163;SDS011;6145;50.192;10.064;2023-07-31T01:46:05;4.70;;;2.63;;
12163;SDS011;6145;50.192;10.064;2023-07-31T01:48:32;4.93;;;2.50;;
12163;SDS011;6145;50.192;10.064;2023-07-31T01:51:01;2.77;;;1.97;;
12163;SDS011;6145;50.192;10.064;2023-07-31T01:53:31;4.87;;;2.37;;
12163;SDS011;6145;50.192;10.064;2023-07-31T01:55:58;5.20;;;2.57;;
12163;SDS011;6145;50.192;10.064;2023-07-31T01:58:27;3.63;;;2.20;;
12163;SDS011;6145;50.192;10.064;2023-07-31T02:00:54;5.67;;;2.47;;
12163;SDS011;6145;50.192;10.064;2023-07-31T02:03:21;4.63;;;2.70;;
12163;SDS011;6145;50.192;10.064;2023-07-31T02:05:48;2.93;;;2.20;;
12163;SDS011;6145;50.192;10.064;2023-07-31T02:08:15;4.50;;;2.13;;
12163;SDS011;6145;50.192;10.064;2023-07-31T02:10:42;3.33;;;2.20;;
12163;SDS011;6145;50.192;10.064;2023-07-31T02:13:09;2.63;;;2.13;;
12163;SDS011;6145;50.192;10.064;2023-07-31T02:15:38;2.40;;;2.20;;
12163;SDS011;6145;50.192;10.064;2023-07-31T02:18:05;3.10;;;2.20;;
12163;SDS011;6145;50.192;10.064;2023-07-31T02:20:33;4.20;;;2.40;;
12163;SDS011;6145;50.192;10.064;2023-07-31T02:23:14;5.10;;;1.93;;
12163;SDS011;6145;50.192;10.064;2023-07-31T02:25:41;4.00;;;2.10;;
12163;SDS011;6145;50.192;10.064;2023-07-31T02:28:10;8.37;;;2.57;;
12163;SDS011;6145;50.192;10.064;2023-07-31T02:30:38;6.67;;;2.60;;
12163;SDS011;6145;50.192;10.064;2023-07-31T02:33:05;2.13;;;1.70;;
12163;SDS011;6145;50.192;10.064;2023-07-31T02:35:32;6.27;;;2.47;;
12163;SDS011;6145;50.192;10.064;2023-07-31T02:38:04;4.80;;;2.53;;
12163;SDS011;6145;50.192;10.064;2023-07-31T02:40:31;3.73;;;2.20;;
12163;SDS011;6145;50.192;10.064;2023-07-31T02:42:58;3.33;;;1.90;;
12163;SDS011;6145;50.192;10.064;2023-07-31T02:45:27;5.03;;;2.23;;
12163;SDS011;6145;50.192;10.064;2023-07-31T02:47:55;4.27;;;2.33;;
12163;SDS011;6145;50.192;10.064;2023-07-31T02:50:22;2.73;;;2.03;;
12163;SDS011;6145;50.192;10.064;2023-07-31T02:52:49;3.80;;;2.23;;
12163;SDS011;6145;50.192;10.064;2023-07-31T02:55:16;4.23;;;2.23;;
12163;SDS011;6145;50.192;10.064;2023-07-31T02:57:45;3.53;;;2.03;;
12163;SDS011;6145;50.192;10.064;2023-07-31T03:00:15;5.30;;;2.50;;
12163;SDS011;6145;50.192;10.064;2023-07-31T03:02:44;3.67;;;2.43;;
12163;SDS011;6145;50.192;10.064;2023-07-31T03:05:12;3.90;;;2.30;;
12163;SDS011;6145;50.192;10.064;2023-07-31T03:07:39;4.53;;;2.23;;
12163;SDS011;6145;50.192;10.064;2023-07-31T03:10:24;6.50;;;2.07;;
12163;SDS011;6145;50.192;10.064;2023-07-31T03:12:52;4.90;;;3.07;;
12163;SDS011;6145;50.192;10.064;2023-07-31T03:15:18;4.63;;;2.40;;
12163;SDS011;6145;50.192;10.064;2023-07-31T03:17:45;4.90;;;2.53;;
12163;SDS011;6145;50.192;10.064;2023-07-31T03:20:14;10.00;;;2.50;;
12163;SDS011;6145;50.192;10.064;2023-07-31T03:22:42;3.93;;;2.93;;
12163;SDS011;6145;50.192;10.064;2023-07-31T03:25:09;5.43;;;2.30;;
12163;SDS011;6145;50.192;10.064;2023-07-31T03:27:39;4.90;;;2.63;;
12163;SDS011;6145;50.192;10.064;2023-07-31T03:30:06;4.27;;;2.60;;
12163;SDS011;6145;50.192;10.064;2023-07-31T03:32:36;3.53;;;2.50;;
12163;SDS011;6145;50.192;10.064;2023-07-31T03:35:03;6.50;;;2.93;;
12163;SDS011;6145;50.192;10.064;2023-07-31T03:37:32;5.27;;;2.50;;
12163;SDS011;6145;50.192;10.064;2023-07-31T03:39:59;5.73;;;2.57;;
12163;SDS011;6145;50.192;10.064;2023-07-31T03:42:26;4.70;;;2.40;;
12163;SDS011;6145;50.192;10.064;2023-07-31T03:44:53;6.27;;;2.70;;
12163;SDS011;6145;50.192;10.064;2023-07-31T03:47:19;3.27;;;2.63;;
12163;SDS011;6145;50.192;10.064;2023-07-31T03:49:46;3.97;;;2.30;;
12163;SDS011;6145;50.192;10.064;2023-07-31T03:52:13;7.20;;;2.87;;
12163;SDS011;6145;50.192;10.064;2023-07-31T03:54:41;7.80;;;2.87;;
12163;SDS011;6145;50.192;10.064;2023-07-31T03:57:09;5.07;;;2.63;;
12163;SDS011;6145;50.192;10.064;2023-07-31T03:59:36;5.20;;;2.40;;
12163;SDS011;6145;50.192;10.064;2023-07-31T04:02:04;3.40;;;2.50;;
12163;SDS011;6145;50.192;10.064;2023-07-31T04:04:34;7.27;;;2.80;;
12163;SDS011;6145;50.192;10.064;2023-07-31T04:07:03;3.33;;;2.43;;
12163;SDS011;6145;50.192;10.064;2023-07-31T04:09:31;4.90;;;2.53;;
12163;SDS011;6145;50.192;10.064;2023-07-31T04:12:00;6.17;;;2.80;;
12163;SDS011;6145;50.192;10.064;2023-07-31T04:14:27;5.43;;;2.67;;
12163;SDS011;6145;50.192;10.064;2023-07-31T04:16:54;3.33;;;2.47;;
12163;SDS011;6145;50.192;10.064;2023-07-31T04:19:21;5.77;;;2.60;;
12163;SDS011;6145;50.192;10.064;2023-07-31T04:21:48;5.53;;;2.30;;
12163;SDS011;6145;50.192;10.064;2023-07-31T04:24:15;7.13;;;2.80;;
12163;SDS011;6145;50.192;10.064;2023-07-31T04:26:49;4.07;;;2.60;;
12163;SDS011;6145;50.192;10.064;2023-07-31T04:29:18;4.53;;;2.80;;
12163;SDS011;6145;50.192;10.064;2023-07-31T04:31:45;5.53;;;2.93;;
12163;SDS011;6145;50.192;10.064;2023-07-31T04:37:39;4.90;;;2.40;;
12163;SDS011;6145;50.192;10.064;2023-07-31T04:54:12;7.70;;;2.47;;
12163;SDS011;6145;50.192;10.064;2023-07-31T04:56:42;4.80;;;2.57;;
12163;SDS011;6145;50.192;10.064;2023-07-31T04:59:14;4.90;;;2.77;;
12163;SDS011;6145;50.192;10.064;2023-07-31T05:02:19;7.20;;;2.80;;
12163;SDS011;6145;50.192;10.064;2023-07-31T05:05:30;8.43;;;2.80;;
12163;SDS011;6145;50.192;10.064;2023-07-31T05:08:56;6.23;;;2.93;;
12163;SDS011;6145;50.192;10.064;2023-07-31T05:28:46;6.20;;;2.57;;
12163;SDS011;6145;50.192;10.064;2023-07-31T05:31:47;5.17;;;3.00;;
12163;SDS011;6145;50.192;10.064;2023-07-31T05:39:06;2.83;;;2.40;;
12163;SDS011;6145;50.192;10.064;2023-07-31T05:41:53;8.50;;;3.30;;
12163;SDS011;6145;50.192;10.064;2023-07-31T05:48:11;3.20;;;2.97;;
12163;SDS011;6145;50.192;10.064;2023-07-31T05:50:54;7.83;;;3.47;;
12163;SDS011;6145;50.192;10.064;2023-07-31T05:53:41;4.30;;;2.10;;
12163;SDS011;6145;50.192;10.064;2023-07-31T05:56:19;7.53;;;3.10;;
12163;SDS011;6145;50.192;10.064;2023-07-31T05:59:20;4.77;;;2.90;;
12163;SDS011;6145;50.192;10.064;2023-07-31T10:21:59;5.63;;;3.00;;
12163;SDS011;6145;50.192;10.064;2023-07-31T10:24:54;6.07;;;2.80;;
12163;SDS011;6145;50.192;10.064;2023-07-31T10:28:25;3.75;;;2.75;;
12163;SDS011;6145;50.192;10.064;2023-07-31T10:31:16;5.00;;;2.90;;
12163;SDS011;6145;50.192;10.064;2023-07-31T10:34:27;5.63;;;3.03;;
12163;SDS011;6145;50.192;10.064;2023-07-31T10:40:55;4.67;;;3.03;;
12163;SDS011;6145;50.192;10.064;2023-07-31T10:43:41;3.80;;;3.13;;
12163;SDS011;6145;50.192;10.064;2023-07-31T10:46:27;4.63;;;3.30;;
12163;SDS011;6145;50.192;10.064;2023-07-31T10:49:12;5.97;;;3.50;;
12163;SDS011;6145;50.192;10.064;2023-07-31T10:52:21;4.68;;;3.25;;
12163;SDS011;6145;50.192;10.064;2023-07-31T10:55:13;6.05;;;2.75;;
12163;SDS011;6145;50.192;10.064;2023-07-31T11:43:07;3.30;;;2.87;;
12163;SDS011;6145;50.192;10.064;2023-07-31T11:45:42;4.73;;;3.50;;
12163;SDS011;6145;50.192;10.064;2023-07-31T11:51:46;3.47;;;3.13;;
12163;SDS011;6145;50.192;10.064;2023-07-31T11:54:13;5.00;;;3.77;;
12163;SDS011;6145;50.192;10.064;2023-07-31T11:56:41;5.20;;;3.23;;
12163;SDS011;6145;50.192;10.064;2023-07-31T11:59:10;4.87;;;3.53;;
12163;SDS011;6145;50.192;10.064;2023-07-31T12:01:37;7.03;;;3.67;;
12163;SDS011;6145;50.192;10.064;2023-07-31T12:04:04;4.93;;;3.60;;
12163;SDS011;6145;50.192;10.064;2023-07-31T12:06:32;5.70;;;3.07;;
12163;SDS011;6145;50.192;10.064;2023-07-31T12:09:00;5.07;;;3.60;;
12163;SDS011;6145;50.192;10.064;2023-07-31T12:11:28;7.27;;;3.80;;
12163;SDS011;6145;50.192;10.064;2023-07-31T12:13:56;4.40;;;3.53;;
12163;SDS011;6145;50.192;10.064;2023-07-31T12:16:26;9.37;;;3.70;;
12163;SDS011;6145;50.192;10.064;2023-07-31T12:18:54;4.60;;;3.70;;
12163;SDS011;6145;50.192;10.064;2023-07-31T12:21:21;6.03;;;3.97;;
12163;SDS011;6145;50.192;10.064;2023-07-31T12:23:47;3.90;;;3.47;;
12163;SDS011;6145;50.192;10.064;2023-07-31T12:26:15;5.40;;;3.43;;
12163;SDS011;6145;50.192;10.064;2023-07-31T12:28:43;4.90;;;3.40;;
12163;SDS011;6145;50.192;10.064;2023-07-31T12:31:14;4.13;;;3.30;;
12163;SDS011;6145;50.192;10.064;2023-07-31T12:33:46;5.97;;;3.60;;
12163;SDS011;6145;50.192;10.064;2023-07-31T12:36:15;5.95;;;3.30;;
12163;SDS011;6145;50.192;10.064;2023-07-31T12:38:44;6.60;;;3.13;;
12163;SDS011;6145;50.192;10.064;2023-07-31T12:41:11;6.43;;;3.30;;
12163;SDS011;6145;50.192;10.064;2023-07-31T12:43:38;4.88;;;3.17;;
12163;SDS011;6145;50.192;10.064;2023-07-31T12:46:06;5.47;;;3.30;;
12163;SDS011;6145;50.192;10.064;2023-07-31T16:06:04;4.40;;;3.13;;
12163;SDS011;6145;50.192;10.064;2023-07-31T16:08:31;6.07;;;3.30;;
12163;SDS011;6145;50.192;10.064;2023-07-31T16:10:58;5.05;;;3.55;;
12163;SDS011;6145;50.192;10.064;2023-07-31T16:13:25;5.27;;;3.27;;
12163;SDS011;6145;50.192;10.064;2023-07-31T16:15:51;5.15;;;3.15;;
12163;SDS011;6145;50.192;10.064;2023-07-31T16:18:19;3.20;;;2.90;;
12163;SDS011;6145;50.192;10.064;2023-07-31T16:20:50;5.72;;;3.35;;
12163;SDS011;6145;50.192;10.064;2023-07-31T16:23:22;4.40;;;2.97;;
12163;SDS011;6145;50.192;10.064;2023-07-31T16:25:52;6.03;;;3.28;;
12163;SDS011;6145;50.192;10.064;2023-07-31T16:28:19;4.93;;;3.30;;
12163;SDS011;6145;50.192;10.064;2023-07-31T16:30:46;4.05;;;3.10;;
12163;SDS011;6145;50.192;10.064;2023-07-31T16:33:13;5.67;;;3.10;;
12163;SDS011;6145;50.192;10.064;2023-07-31T16:35:40;4.10;;;3.40;;
12163;SDS011;6145;50.192;10.064;2023-07-31T16:38:07;6.53;;;3.63;;
12163;SDS011;6145;50.192;10.064;2023-07-31T16:40:42;4.68;;;3.47;;
12163;SDS011;6145;50.192;10.064;2023-07-31T16:43:11;6.15;;;3.35;;
12163;SDS011;6145;50.192;10.064;2023-07-31T16:45:39;3.93;;;2.87;;
12163;SDS011;6145;50.192;10.064;2023-07-31T16:48:06;4.60;;;3.20;;
12163;SDS011;6145;50.192;10.064;2023-07-31T16:50:33;4.30;;;2.93;;
12163;SDS011;6145;50.192;10.064;2023-07-31T16:53:06;4.50;;;3.17;;
12163;SDS011;6145;50.192;10.064;2023-07-31T16:58:15;4.83;;;3.33;;
12163;SDS011;6145;50.192;10.064;2023-07-31T17:01:04;6.03;;;2.85;;
12163;SDS011;6145;50.192;10.064;2023-07-31T17:06:20;5.23;;;3.13;;
12163;SDS011;6145;50.192;10.064;2023-07-31T17:09:15;4.60;;;3.50;;
